Time;durP1;ratioP1;P1;durP2;ratioP2;P2;SDS_P1;SDS_P2;PMS_P1;PMS_P2;Temp;Humidity;BMP_temperature;BMP_pressure;BME280_temperature;BME280_humidity;BME280_pressure;Samples;Min_cycle;Max_cycle;Signal;HPM_P1;HPM_P2
2021/12/27 00:00:42;;;;;;;26.33;16.45;;;-1.50;99.90;;;;;;5070511;28;20055;-43
2021/12/27 00:03:08;;;;;;;30.35;17.15;;;-1.50;99.90;;;;;;5069969;28;20127;-42
2021/12/27 00:05:35;;;;;;;27.80;17.30;;;-1.50;99.90;;;;;;5070166;28;20131;-42
2021/12/27 00:08:00;;;;;;;27.55;16.48;;;-1.50;99.90;;;;;;5070152;28;20131;-43
2021/12/27 00:10:28;;;;;;;31.60;16.63;;;-1.50;99.90;;;;;;5069876;28;20029;-42
2021/12/27 00:12:54;;;;;;;28.52;17.10;;;-1.60;99.90;;;;;;5052410;28;20041;-42
2021/12/27 00:15:20;;;;;;;26.58;14.63;;;-1.70;99.90;;;;;;5085261;28;20670;-42
2021/12/27 00:17:47;;;;;;;26.55;16.58;;;-1.80;99.90;;;;;;5069997;28;20041;-43
2021/12/27 00:20:15;;;;;;;30.10;15.15;;;-2.00;99.90;;;;;;5069355;28;20067;-42
2021/12/27 00:22:42;;;;;;;28.48;15.63;;;-2.00;99.90;;;;;;5069662;28;20502;-42
2021/12/27 00:25:08;;;;;;;25.48;15.82;;;-2.00;99.90;;;;;;5069423;28;20437;-43
2021/12/27 00:27:35;;;;;;;30.60;17.70;;;-2.10;99.90;;;;;;5069700;28;20077;-42
2021/12/27 00:30:01;;;;;;;29.27;17.65;;;-2.00;99.90;;;;;;5069899;28;20105;-42
2021/12/27 00:32:27;;;;;;;27.05;16.35;;;-2.00;99.90;;;;;;5070032;28;20163;-42
2021/12/27 00:34:53;;;;;;;27.98;16.77;;;-2.00;99.90;;;;;;5069541;28;20117;-42
2021/12/27 00:37:18;;;;;;;24.65;15.55;;;-2.00;99.90;;;;;;5069634;28;20036;-42
2021/12/27 00:39:44;;;;;;;28.88;16.80;;;-2.00;99.90;;;;;;5070061;28;20067;-42
2021/12/27 00:42:10;;;;;;;27.65;16.92;;;-1.90;99.90;;;;;;5069476;28;20095;-42
2021/12/27 00:44:36;;;;;;;29.38;16.02;;;-0.20;99.90;;;;;;5069764;28;20055;-43
2021/12/27 00:47:02;;;;;;;29.45;16.95;;;-1.90;99.90;;;;;;5069611;28;20040;-42
2021/12/27 00:49:28;;;;;;;32.30;18.17;;;-1.70;99.90;;;;;;5069423;28;20119;-42
2021/12/27 00:51:54;;;;;;;28.55;16.85;;;-1.70;99.90;;;;;;5069494;28;20162;-42
2021/12/27 00:54:20;;;;;;;27.60;17.17;;;-1.60;99.90;;;;;;5069072;28;20040;-43
2021/12/27 00:56:46;;;;;;;30.00;17.23;;;-1.60;99.90;;;;;;5069307;28;20033;-41
2021/12/27 00:59:11;;;;;;;26.85;16.23;;;-1.60;99.90;;;;;;5069312;28;20040;-42
2021/12/27 01:01:37;;;;;;;28.85;17.52;;;-1.60;99.90;;;;;;5069271;28;20147;-41
2021/12/27 01:04:04;;;;;;;28.40;17.10;;;-1.50;99.90;;;;;;5069191;28;20047;-42
2021/12/27 01:06:30;;;;;;;28.17;16.75;;;-1.50;99.90;;;;;;5068999;28;20395;-41
2021/12/27 01:08:55;;;;;;;31.42;17.83;;;-1.50;99.90;;;;;;5050778;28;20089;-41
2021/12/27 01:11:26;;;;;;;29.15;17.50;;;-1.50;99.90;;;;;;5050774;28;20133;-41
2021/12/27 01:14:03;;;;;;;25.17;16.60;;;-1.50;99.90;;;;;;5056888;28;20068;-41
2021/12/27 01:16:28;;;;;;;27.27;17.08;;;-1.50;99.90;;;;;;5088697;28;20040;-42
2021/12/27 01:18:54;;;;;;;32.00;18.67;;;-1.40;99.90;;;;;;5089048;28;20490;-42
2021/12/27 01:21:23;;;;;;;30.15;17.45;;;-1.40;99.90;;;;;;5088575;28;20103;-42
2021/12/27 01:23:50;;;;;;;28.77;16.30;;;-1.50;99.90;;;;;;5088768;28;20109;-42
2021/12/27 01:26:16;;;;;;;28.83;17.15;;;-1.40;99.90;;;;;;5088872;28;20127;-41
2021/12/27 01:28:42;;;;;;;29.75;17.25;;;-0.20;99.90;;;;;;5088523;28;20040;-41
2021/12/27 01:31:08;;;;;;;29.63;18.10;;;-1.40;99.90;;;;;;5070505;28;20508;-41
2021/12/27 01:33:34;;;;;;;29.63;18.45;;;-1.50;99.90;;;;;;5088763;28;20104;-41
2021/12/27 01:36:02;;;;;;;29.02;17.27;;;-1.40;99.90;;;;;;5089010;28;20047;-41
2021/12/27 01:38:27;;;;;;;28.42;18.23;;;-1.40;99.90;;;;;;5076438;28;20414;-41
2021/12/27 01:40:56;;;;;;;30.88;17.48;;;-1.40;99.90;;;;;;5050222;28;20055;-41
2021/12/27 01:43:25;;;;;;;28.65;18.10;;;-1.40;99.90;;;;;;5068339;28;20054;-42
2021/12/27 01:45:55;;;;;;;28.45;18.17;;;-1.40;99.90;;;;;;5068214;28;20051;-42
2021/12/27 01:48:24;;;;;;;28.63;17.40;;;-1.40;99.90;;;;;;5068285;28;20076;-42
2021/12/27 01:50:53;;;;;;;28.10;18.00;;;-1.40;99.90;;;;;;5068178;28;20119;-41
2021/12/27 01:53:21;;;;;;;26.98;17.00;;;-1.40;99.90;;;;;;5068673;28;20036;-41
2021/12/27 01:55:48;;;;;;;30.08;18.42;;;-1.40;99.90;;;;;;5068033;28;20048;-42
2021/12/27 01:58:14;;;;;;;35.72;19.42;;;-1.40;99.90;;;;;;5068191;28;20036;-42
2021/12/27 02:00:47;;;;;;;30.08;18.30;;;-1.30;99.90;;;;;;5068101;28;20051;-42
2021/12/27 02:03:15;;;;;;;34.78;19.08;;;-1.30;99.90;;;;;;5068276;28;20642;-42
2021/12/27 02:05:41;;;;;;;33.63;19.48;;;-1.30;99.90;;;;;;5068028;28;20178;-42
2021/12/27 02:08:08;;;;;;;30.05;19.42;;;-0.90;99.90;;;;;;5067888;28;20385;-41
2021/12/27 02:10:33;;;;;;;29.08;19.17;;;-1.30;99.90;;;;;;5067797;28;20040;-42
2021/12/27 02:13:00;;;;;;;27.85;17.80;;;-1.30;99.90;;;;;;5068088;28;20097;-43
2021/12/27 02:15:26;;;;;;;29.10;19.13;;;-1.30;99.90;;;;;;5087285;28;20152;-42
2021/12/27 02:17:52;;;;;;;30.35;18.52;;;-1.20;99.90;;;;;;5088146;28;20055;-42
2021/12/27 02:20:20;;;;;;;27.98;18.77;;;-1.20;99.90;;;;;;5088138;28;20040;-42
2021/12/27 02:22:47;;;;;;;27.42;17.33;;;-1.30;99.90;;;;;;5087853;28;20115;-41
2021/12/27 02:25:15;;;;;;;28.15;18.85;;;-1.20;99.90;;;;;;5088201;28;20044;-42
2021/12/27 02:27:43;;;;;;;32.67;20.27;;;-1.20;99.90;;;;;;5092519;28;20123;-42
2021/12/27 02:30:12;;;;;;;33.10;20.25;;;-1.20;99.90;;;;;;5092163;28;20209;-42
2021/12/27 02:32:49;;;;;;;31.50;19.27;;;-1.20;99.90;;;;;;5092467;28;20085;-41
2021/12/27 02:35:18;;;;;;;33.55;20.48;;;-1.10;99.90;;;;;;5093378;28;20097;-42
2021/12/27 02:37:44;;;;;;;30.67;18.17;;;-1.10;99.90;;;;;;5086608;28;20037;-42
2021/12/27 02:40:11;;;;;;;30.55;19.17;;;-1.10;99.90;;;;;;5073171;28;20039;-42
2021/12/27 02:42:59;;;;;;;31.90;19.60;;;-1.10;99.90;;;;;;5072401;28;20040;-42
2021/12/27 02:45:27;;;;;;;29.58;19.40;;;-1.10;99.90;;;;;;5072562;28;20045;-41
2021/12/27 02:47:52;;;;;;;28.65;19.10;;;-1.10;99.90;;;;;;5072875;28;20076;-42
2021/12/27 02:50:19;;;;;;;30.98;20.02;;;-0.80;99.90;;;;;;5072963;28;20079;-41
2021/12/27 02:52:46;;;;;;;28.65;18.55;;;-0.70;99.90;;;;;;5073113;28;20043;-41
2021/12/27 02:55:15;;;;;;;31.52;19.08;;;-0.90;99.90;;;;;;5072992;28;20044;-42
2021/12/27 02:57:51;;;;;;;31.73;20.45;;;-0.90;99.90;;;;;;5073152;28;20101;-41
2021/12/27 03:00:22;;;;;;;33.08;19.52;;;-0.90;99.90;;;;;;5073179;28;20139;-42
2021/12/27 03:02:49;;;;;;;31.73;20.45;;;-0.90;99.90;;;;;;5072581;28;20051;-41
2021/12/27 03:05:17;;;;;;;34.70;20.80;;;-0.90;99.90;;;;;;5072742;28;20041;-42
2021/12/27 03:07:43;;;;;;;35.28;20.70;;;-0.90;99.90;;;;;;5072531;28;20079;-42
2021/12/27 03:10:11;;;;;;;33.95;20.92;;;-0.90;99.90;;;;;;5072690;28;20453;-42
2021/12/27 03:12:38;;;;;;;29.67;19.33;;;-0.90;99.90;;;;;;5072294;28;20040;-42
2021/12/27 03:15:09;;;;;;;31.42;19.48;;;-0.90;99.90;;;;;;5072612;28;20478;-42
2021/12/27 03:17:36;;;;;;;34.20;20.02;;;-0.90;99.90;;;;;;5072599;28;20045;-42
2021/12/27 03:20:04;;;;;;;33.30;20.65;;;-0.90;99.90;;;;;;5072453;28;20036;-41
2021/12/27 03:22:30;;;;;;;29.63;18.80;;;-1.00;99.90;;;;;;5072737;28;20051;-42
2021/12/27 03:24:55;;;;;;;33.15;21.23;;;-0.90;99.90;;;;;;5071971;28;20090;-43
2021/12/27 03:27:21;;;;;;;33.10;20.48;;;-0.90;99.90;;;;;;5072275;28;20133;-42
2021/12/27 03:29:47;;;;;;;34.25;22.98;;;-0.90;99.90;;;;;;5072052;28;20041;-42
2021/12/27 03:32:13;;;;;;;33.65;20.95;;;-0.90;99.90;;;;;;5072105;28;20036;-43
2021/12/27 03:34:52;;;;;;;32.30;20.40;;;-0.70;99.90;;;;;;5072139;28;20047;-43
2021/12/27 03:37:18;;;;;;;32.55;21.00;;;-0.80;99.90;;;;;;5071660;28;20398;-42
2021/12/27 03:39:43;;;;;;;35.50;21.55;;;-0.90;99.90;;;;;;5071815;28;20051;-42
2021/12/27 03:42:09;;;;;;;34.22;21.40;;;-0.90;99.90;;;;;;5071641;28;20043;-42
2021/12/27 03:44:35;;;;;;;32.47;20.00;;;-0.90;99.90;;;;;;5071961;28;20128;-43
2021/12/27 03:47:01;;;;;;;35.65;21.25;;;-0.80;99.90;;;;;;5071471;28;20048;-42
2021/12/27 03:49:26;;;;;;;32.70;19.67;;;-0.70;99.90;;;;;;5071623;28;20044;-43
2021/12/27 03:51:52;;;;;;;36.50;21.50;;;-0.80;99.90;;;;;;5071318;28;20118;-43
2021/12/27 03:54:17;;;;;;;33.55;22.05;;;-0.80;99.90;;;;;;5072164;28;20429;-42
2021/12/27 03:56:43;;;;;;;36.08;20.48;;;-0.80;99.90;;;;;;5071940;28;20421;-42
2021/12/27 03:59:22;;;;;;;34.95;20.35;;;-0.80;99.90;;;;;;5071468;28;20051;-42
2021/12/27 04:01:49;;;;;;;33.38;21.05;;;-0.80;99.90;;;;;;5071442;28;20040;-42
2021/12/27 04:04:15;;;;;;;32.33;19.63;;;-0.80;99.90;;;;;;5071747;28;20040;-42
2021/12/27 04:06:40;;;;;;;34.35;21.85;;;-0.80;99.90;;;;;;5071912;28;20067;-42
2021/12/27 04:09:07;;;;;;;33.28;21.05;;;-0.80;99.90;;;;;;5071191;28;20437;-41
2021/12/27 04:11:32;;;;;;;36.97;20.27;;;-0.70;99.90;;;;;;5071748;28;20079;-42
2021/12/27 04:14:02;;;;;;;37.60;22.45;;;-0.80;99.90;;;;;;5071108;28;20040;-42
2021/12/27 04:16:28;;;;;;;35.92;21.92;;;-0.70;99.90;;;;;;5071723;28;20049;-42
2021/12/27 04:18:55;;;;;;;31.02;21.38;;;-0.70;99.90;;;;;;5071256;28;20048;-42
2021/12/27 04:21:21;;;;;;;29.95;20.20;;;-0.70;99.90;;;;;;5071392;28;20159;-42
2021/12/27 04:23:47;;;;;;;37.58;23.33;;;-0.70;99.90;;;;;;5052927;28;20383;-42
2021/12/27 04:26:12;;;;;;;34.17;21.48;;;-0.70;99.90;;;;;;5071222;28;20064;-42
2021/12/27 04:28:38;;;;;;;36.10;20.88;;;-0.80;99.90;;;;;;5070895;28;20954;-41
2021/12/27 04:31:04;;;;;;;35.10;20.85;;;-0.60;99.90;;;;;;5071139;28;20040;-42
2021/12/27 04:33:30;;;;;;;30.33;20.15;;;-0.70;99.90;;;;;;5071170;28;20074;-43
2021/12/27 04:35:56;;;;;;;33.55;21.08;;;-0.60;99.90;;;;;;5070965;28;20040;-42
2021/12/27 04:38:22;;;;;;;36.58;21.13;;;-0.80;99.90;;;;;;5070836;28;20498;-41
2021/12/27 04:40:51;;;;;;;31.58;21.38;;;-0.70;99.90;;;;;;5070886;28;20044;-41
2021/12/27 04:43:21;;;;;;;35.17;20.92;;;-0.80;99.90;;;;;;5070370;28;20158;-42
2021/12/27 04:45:48;;;;;;;33.80;20.63;;;-0.70;99.90;;;;;;5070698;28;20040;-42
2021/12/27 04:48:15;;;;;;;31.20;22.15;;;-0.60;99.90;;;;;;5069730;28;20453;-42
2021/12/27 04:50:41;;;;;;;34.67;21.75;;;-0.60;99.90;;;;;;5070644;28;20541;-42
2021/12/27 04:53:08;;;;;;;38.25;23.42;;;-0.60;99.90;;;;;;5070332;28;20068;-43
2021/12/27 04:55:37;;;;;;;35.20;20.55;;;-0.60;99.90;;;;;;5070432;28;20049;-41
2021/12/27 04:58:05;;;;;;;35.38;21.67;;;-0.60;99.90;;;;;;5070301;28;20040;-42
2021/12/27 05:00:31;;;;;;;34.00;20.90;;;-0.70;99.90;;;;;;5070654;28;20040;-42
2021/12/27 05:02:58;;;;;;;34.20;21.38;;;-0.70;99.90;;;;;;5070505;28;20456;-42
2021/12/27 05:05:25;;;;;;;36.88;21.40;;;-0.60;99.90;;;;;;5052792;28;20086;-42
2021/12/27 05:07:51;;;;;;;36.92;22.27;;;-0.60;99.90;;;;;;5070333;28;20087;-42
2021/12/27 05:10:17;;;;;;;33.72;20.75;;;-0.60;99.90;;;;;;5070031;28;20076;-41
2021/12/27 05:12:44;;;;;;;36.63;22.08;;;-0.60;99.90;;;;;;5070484;28;20040;-42
2021/12/27 05:15:10;;;;;;;35.47;22.17;;;-0.70;99.90;;;;;;5070047;28;20044;-42
2021/12/27 05:17:36;;;;;;;38.03;22.38;;;-0.60;99.90;;;;;;5070168;28;20044;-42
2021/12/27 05:20:05;;;;;;;33.53;20.92;;;-0.60;99.90;;;;;;5069948;28;20040;-43
2021/12/27 05:22:32;;;;;;;37.90;22.80;;;-0.50;99.90;;;;;;5070216;28;20052;-42
2021/12/27 05:24:58;;;;;;;37.17;23.30;;;-0.60;99.90;;;;;;5051626;28;20060;-43
2021/12/27 05:27:23;;;;;;;34.25;21.05;;;-0.50;99.90;;;;;;5069700;28;20090;-42
2021/12/27 05:29:49;;;;;;;33.97;20.20;;;-0.50;99.90;;;;;;5069744;28;20076;-42
2021/12/27 05:32:15;;;;;;;35.05;22.60;;;-0.50;99.90;;;;;;5069956;28;20045;-42
2021/12/27 05:34:41;;;;;;;42.10;24.42;;;-0.50;99.90;;;;;;5069708;28;20055;-41
2021/12/27 05:37:06;;;;;;;41.03;24.10;;;-0.50;99.90;;;;;;5069665;28;20064;-42
2021/12/27 05:39:33;;;;;;;46.17;26.73;;;-0.50;99.90;;;;;;5069724;28;20055;-42
2021/12/27 05:41:59;;;;;;;39.97;25.52;;;-0.50;99.90;;;;;;5069648;28;20044;-42
2021/12/27 05:44:25;;;;;;;42.75;25.15;;;-0.50;99.90;;;;;;5069799;28;20090;-42
2021/12/27 05:46:51;;;;;;;39.08;23.50;;;-0.50;99.90;;;;;;5069762;28;20438;-42
2021/12/27 05:49:17;;;;;;;39.53;24.83;;;-0.50;99.90;;;;;;5069908;28;20079;-42
2021/12/27 05:51:43;;;;;;;41.08;25.20;;;-0.50;99.90;;;;;;5069936;28;20036;-42
2021/12/27 05:54:10;;;;;;;41.22;25.30;;;-0.50;99.90;;;;;;5069251;28;20055;-43
2021/12/27 05:56:36;;;;;;;41.88;25.38;;;-0.70;99.90;;;;;;5069693;28;20040;-42
2021/12/27 05:59:02;;;;;;;41.83;25.77;;;-0.60;99.90;;;;;;5069717;28;20040;-42
2021/12/27 06:01:28;;;;;;;43.72;24.83;;;-0.60;99.90;;;;;;5069374;28;20066;-42
2021/12/27 06:03:57;;;;;;;45.38;27.13;;;-0.60;99.90;;;;;;5069565;28;20082;-42
2021/12/27 06:06:23;;;;;;;40.15;23.92;;;-0.50;99.90;;;;;;5069339;28;20059;-42
2021/12/27 06:08:49;;;;;;;42.88;27.73;;;-0.60;99.90;;;;;;5069330;28;20475;-42
2021/12/27 06:11:15;;;;;;;44.08;24.52;;;-0.60;99.90;;;;;;5069206;28;20106;-42
2021/12/27 06:13:40;;;;;;;41.67;25.77;;;-0.60;99.90;;;;;;5069627;28;20177;-42
2021/12/27 06:16:06;;;;;;;49.17;27.70;;;-0.60;99.90;;;;;;5069469;28;20501;-42
2021/12/27 06:18:32;;;;;;;49.63;27.55;;;-0.70;99.90;;;;;;5069447;28;20044;-42
2021/12/27 06:20:58;;;;;;;46.83;26.60;;;-0.60;99.90;;;;;;5069588;28;20166;-42
2021/12/27 06:23:23;;;;;;;46.03;26.85;;;0.30;99.90;;;;;;5068990;28;20047;-44
2021/12/27 06:25:49;;;;;;;48.58;28.00;;;-0.70;99.90;;;;;;5069067;28;20182;-42
2021/12/27 06:28:16;;;;;;;53.92;30.40;;;-0.60;99.90;;;;;;5069054;28;20414;-42
2021/12/27 06:30:42;;;;;;;51.85;26.83;;;-0.70;99.90;;;;;;5069273;28;20062;-42
2021/12/27 06:33:10;;;;;;;55.35;29.45;;;-0.50;99.90;;;;;;5069586;28;20033;-42
2021/12/27 06:35:36;;;;;;;49.40;29.13;;;-0.60;99.90;;;;;;5051239;28;20171;-42
2021/12/27 06:38:02;;;;;;;55.35;30.30;;;-0.60;99.90;;;;;;5042416;28;20462;-42
2021/12/27 06:40:30;;;;;;;58.53;31.15;;;-0.70;99.90;;;;;;5048744;28;20143;-42
2021/12/27 06:42:57;;;;;;;59.10;31.77;;;-0.50;99.90;;;;;;5049262;28;20041;-44
2021/12/27 06:45:23;;;;;;;53.85;29.88;;;-0.20;99.90;;;;;;5048785;28;20048;-42
2021/12/27 06:47:49;;;;;;;53.38;28.67;;;-0.30;99.90;;;;;;5049217;28;20037;-43
2021/12/27 06:50:15;;;;;;;48.90;26.38;;;0.70;99.90;;;;;;5048792;28;20091;-42
2021/12/27 06:52:41;;;;;;;57.72;30.30;;;-0.50;99.90;;;;;;5031005;28;20540;-42
2021/12/27 06:55:08;;;;;;;51.30;30.23;;;-0.60;99.90;;;;;;5048835;28;20491;-43
2021/12/27 06:57:34;;;;;;;48.30;29.55;;;-0.50;99.90;;;;;;5048850;28;20119;-43
2021/12/27 07:00:01;;;;;;;53.60;29.65;;;-0.50;99.90;;;;;;5049081;28;20045;-42
2021/12/27 07:02:26;;;;;;;51.58;30.73;;;-0.60;99.90;;;;;;5048915;28;20048;-43
2021/12/27 07:04:52;;;;;;;52.33;30.63;;;-0.60;99.90;;;;;;5049109;28;20139;-42
2021/12/27 07:07:18;;;;;;;58.78;33.15;;;-0.40;99.90;;;;;;5049069;28;20475;-42
2021/12/27 07:09:44;;;;;;;57.33;31.92;;;-0.50;99.90;;;;;;5049279;28;20041;-44
2021/12/27 07:12:10;;;;;;;58.90;32.00;;;-0.50;99.90;;;;;;5050333;28;20127;-43
2021/12/27 07:14:36;;;;;;;55.92;30.85;;;-0.50;99.90;;;;;;5052417;28;20041;-42
2021/12/27 07:17:01;;;;;;;64.00;33.10;;;-0.50;99.90;;;;;;5052538;28;20044;-42
2021/12/27 07:19:27;;;;;;;62.60;34.35;;;-0.50;99.90;;;;;;5052357;28;20123;-43
2021/12/27 07:21:53;;;;;;;55.08;30.02;;;-0.60;99.90;;;;;;5052519;28;20049;-43
2021/12/27 07:24:19;;;;;;;64.95;33.13;;;-0.50;99.90;;;;;;5058584;28;20052;-42
2021/12/27 07:26:45;;;;;;;60.45;31.73;;;-0.50;99.90;;;;;;5072616;28;20048;-43
2021/12/27 07:29:11;;;;;;;57.90;32.15;;;-0.50;99.90;;;;;;5072410;28;20059;-43
2021/12/27 07:31:36;;;;;;;59.92;32.08;;;-0.50;99.90;;;;;;5072238;28;20471;-43
2021/12/27 07:34:02;;;;;;;60.60;35.45;;;-0.40;99.90;;;;;;5072568;28;20049;-42
2021/12/27 07:36:30;;;;;;;65.03;34.83;;;-0.50;99.90;;;;;;5071932;28;20078;-42
2021/12/27 07:38:56;;;;;;;75.07;39.03;;;0.10;99.90;;;;;;5072200;28;20036;-42
2021/12/27 07:41:23;;;;;;;71.22;35.28;;;-0.40;99.90;;;;;;5071779;28;20044;-43
2021/12/27 07:43:49;;;;;;;70.18;36.47;;;-0.40;99.90;;;;;;5072349;28;20558;-43
2021/12/27 07:46:14;;;;;;;61.40;32.92;;;-0.30;99.90;;;;;;5072026;28;20124;-43
2021/12/27 07:48:40;;;;;;;68.80;33.45;;;-0.30;99.90;;;;;;5071733;28;20110;-42
2021/12/27 07:51:06;;;;;;;69.53;34.70;;;-0.30;99.90;;;;;;5053435;28;20078;-43
2021/12/27 07:53:32;;;;;;;62.67;32.08;;;-0.30;99.90;;;;;;5071693;28;20044;-42
2021/12/27 07:55:58;;;;;;;74.13;37.22;;;-0.30;99.90;;;;;;5071874;28;20050;-43
2021/12/27 07:58:23;;;;;;;66.32;33.72;;;-0.30;99.90;;;;;;5071673;28;20040;-43
2021/12/27 08:00:50;;;;;;;78.35;37.08;;;-0.20;99.90;;;;;;5071683;28;20044;-42
2021/12/27 08:03:20;;;;;;;72.05;35.00;;;-0.20;99.90;;;;;;5071683;28;20056;-42
2021/12/27 08:05:47;;;;;;;80.32;38.47;;;-0.20;99.90;;;;;;5071229;28;20557;-43
2021/12/27 08:08:13;;;;;;;70.50;34.92;;;-0.30;99.90;;;;;;5071476;28;20051;-42
2021/12/27 08:10:38;;;;;;;84.40;38.92;;;-0.20;99.90;;;;;;5071376;28;20049;-43
2021/12/27 08:13:04;;;;;;;74.88;36.95;;;-0.30;99.90;;;;;;5071550;28;20067;-42
2021/12/27 08:15:30;;;;;;;73.25;36.15;;;-0.10;99.90;;;;;;5053271;28;20375;-42
2021/12/27 08:17:56;;;;;;;81.53;38.80;;;-0.20;99.90;;;;;;5071390;28;20040;-42
2021/12/27 08:20:22;;;;;;;67.53;36.40;;;-0.20;99.90;;;;;;5071283;28;20497;-42
2021/12/27 08:22:49;;;;;;;75.28;36.65;;;-0.20;99.90;;;;;;5070688;28;20551;-42
2021/12/27 08:25:16;;;;;;;82.13;35.38;;;-0.20;99.90;;;;;;5070716;28;20533;-43
2021/12/27 08:27:43;;;;;;;84.32;37.50;;;0.70;99.90;;;;;;5070935;28;20174;-43
2021/12/27 08:30:10;;;;;;;85.43;39.30;;;-0.20;99.90;;;;;;5070971;28;20490;-43
2021/12/27 08:32:38;;;;;;;80.07;37.72;;;-0.10;99.90;;;;;;5070619;28;20118;-42
2021/12/27 08:35:04;;;;;;;86.85;39.78;;;-0.20;99.90;;;;;;5071150;28;20048;-43
2021/12/27 08:37:31;;;;;;;77.03;38.22;;;-0.10;99.90;;;;;;5066920;28;20037;-43
2021/12/27 08:39:57;;;;;;;88.75;38.08;;;-0.10;99.90;;;;;;5032902;28;20120;-43
2021/12/27 08:42:23;;;;;;;79.30;33.88;;;-0.10;99.90;;;;;;5017078;28;20483;-43
2021/12/27 08:44:51;;;;;;;84.43;38.80;;;-0.10;99.90;;;;;;5050925;28;20051;-42
2021/12/27 08:47:17;;;;;;;81.85;38.97;;;0.90;99.90;;;;;;5032974;28;20103;-42
2021/12/27 08:49:43;;;;;;;82.03;37.88;;;-0.10;99.90;;;;;;5050565;28;20049;-42
2021/12/27 08:52:10;;;;;;;78.85;37.60;;;-0.10;99.90;;;;;;5050853;28;20095;-42
2021/12/27 08:54:35;;;;;;;88.82;38.22;;;-0.10;99.90;;;;;;5050531;28;20059;-43
2021/12/27 08:57:04;;;;;;;84.53;36.67;;;0.00;99.90;;;;;;5050939;28;20467;-42
2021/12/27 08:59:30;;;;;;;84.93;36.88;;;0.00;99.90;;;;;;5050627;28;20148;-43
2021/12/27 09:01:55;;;;;;;80.72;34.65;;;0.00;99.90;;;;;;5050367;28;20144;-42
2021/12/27 09:04:23;;;;;;;87.30;36.13;;;0.00;99.90;;;;;;5050422;28;20582;-42
2021/12/27 09:06:49;;;;;;;83.43;34.80;;;0.00;99.90;;;;;;5032186;28;20107;-42
2021/12/27 09:09:15;;;;;;;84.22;34.45;;;0.00;99.90;;;;;;5050741;28;20076;-43
2021/12/27 09:11:45;;;;;;;93.65;38.30;;;0.00;99.90;;;;;;5050142;28;20044;-42
2021/12/27 09:14:12;;;;;;;90.90;37.50;;;0.00;99.90;;;;;;5050637;28;20037;-42
2021/12/27 09:16:38;;;;;;;90.55;36.60;;;0.00;99.90;;;;;;5050014;28;20045;-42
2021/12/27 09:19:04;;;;;;;101.13;40.63;;;0.00;99.90;;;;;;5050176;28;20048;-43
2021/12/27 09:21:29;;;;;;;93.50;37.33;;;0.00;99.90;;;;;;5050341;28;20096;-42
2021/12/27 09:23:55;;;;;;;96.05;40.10;;;0.10;99.90;;;;;;5053004;28;20072;-43
2021/12/27 09:26:21;;;;;;;101.45;40.55;;;0.00;99.90;;;;;;5069604;28;20533;-44
2021/12/27 09:28:47;;;;;;;101.38;39.70;;;0.00;99.90;;;;;;5068209;28;20051;-43
2021/12/27 09:31:12;;;;;;;98.22;39.35;;;0.90;99.90;;;;;;5068874;28;20127;-43
2021/12/27 09:33:38;;;;;;;103.75;40.67;;;0.00;99.90;;;;;;5068516;28;20127;-42
2021/12/27 09:36:04;;;;;;;109.05;37.92;;;0.10;99.90;;;;;;5068672;28;20043;-44
2021/12/27 09:38:30;;;;;;;116.53;42.72;;;0.10;99.90;;;;;;5068906;28;20087;-44
2021/12/27 09:40:56;;;;;;;115.53;42.35;;;0.10;99.90;;;;;;5068941;28;20103;-42
2021/12/27 09:43:23;;;;;;;105.88;39.42;;;0.10;99.90;;;;;;5068963;28;20098;-43
2021/12/27 09:45:49;;;;;;;124.85;42.55;;;0.20;99.90;;;;;;5068703;28;20049;-42
2021/12/27 09:48:15;;;;;;;103.75;41.75;;;0.20;99.90;;;;;;5068660;28;20071;-43
2021/12/27 09:50:48;;;;;;;124.15;43.30;;;0.50;99.90;;;;;;5068935;28;20059;-43
2021/12/27 09:53:14;;;;;;;115.45;44.58;;;0.20;99.90;;;;;;5068817;28;20040;-43
2021/12/27 09:55:40;;;;;;;134.55;44.92;;;0.20;99.90;;;;;;5068823;28;20038;-43
2021/12/27 09:58:06;;;;;;;148.90;47.53;;;0.30;99.90;;;;;;5068786;28;20037;-43
2021/12/27 10:00:34;;;;;;;137.10;45.55;;;0.30;99.90;;;;;;5068593;28;20486;-43
2021/12/27 10:03:00;;;;;;;130.07;45.97;;;0.40;99.90;;;;;;5068571;28;20055;-43
2021/12/27 10:05:28;;;;;;;138.05;44.60;;;0.40;99.90;;;;;;5069077;28;20048;-44
2021/12/27 10:07:54;;;;;;;128.35;39.83;;;0.40;99.90;;;;;;5068252;28;20048;-44
2021/12/27 10:10:20;;;;;;;141.02;45.95;;;0.50;99.90;;;;;;5068595;28;20044;-43
2021/12/27 10:12:47;;;;;;;135.13;46.78;;;0.70;99.90;;;;;;5068217;28;20083;-45
2021/12/27 10:15:22;;;;;;;150.52;45.03;;;0.60;99.90;;;;;;5068530;28;20048;-43
2021/12/27 10:17:49;;;;;;;140.32;43.30;;;0.60;99.90;;;;;;5050279;28;20048;-43
2021/12/27 10:20:22;;;;;;;140.18;44.17;;;0.70;99.90;;;;;;5068598;28;20411;-43
2021/12/27 10:22:53;;;;;;;111.57;37.78;;;1.40;99.90;;;;;;5050640;28;20045;-43
2021/12/27 10:25:23;;;;;;;145.67;44.17;;;0.60;99.90;;;;;;5030495;28;1094623;-44
2021/12/27 10:27:53;;;;;;;143.15;43.13;;;0.60;99.90;;;;;;5068983;28;20049;-43
2021/12/27 10:30:45;;;;;;;153.48;46.45;;;0.60;99.90;;;;;;5069198;28;20051;-43
2021/12/27 10:33:14;;;;;;;132.55;41.67;;;0.70;99.90;;;;;;5058261;28;20651;-43
2021/12/27 10:35:43;;;;;;;145.10;45.53;;;0.60;99.90;;;;;;5069291;28;20047;-43
2021/12/27 10:38:16;;;;;;;162.68;48.83;;;0.70;99.90;;;;;;5068624;28;20040;-43
2021/12/27 10:41:10;;;;;;;140.85;45.38;;;0.70;99.90;;;;;;5066373;28;20047;-39
2021/12/27 10:43:48;;;;;;;140.93;41.40;;;1.20;99.90;;;;;;5042491;28;20394;-53
2021/12/27 10:46:16;;;;;;;140.57;46.35;;;0.70;99.90;;;;;;5058505;28;20036;-45
2021/12/27 10:48:46;;;;;;;148.60;42.88;;;0.10;99.90;;;;;;5069206;28;20045;-46
2021/12/27 10:51:12;;;;;;;170.55;45.80;;;0.70;99.90;;;;;;5067770;28;20041;-45
2021/12/27 10:53:54;;;;;;;155.00;43.95;;;0.80;99.90;;;;;;5065432;28;20032;-42
2021/12/27 10:56:22;;;;;;;179.40;47.17;;;0.70;99.90;;;;;;5068280;28;20085;-46
2021/12/27 10:58:51;;;;;;;142.45;43.42;;;0.70;99.90;;;;;;5049807;28;20101;-45
2021/12/27 11:01:18;;;;;;;155.75;49.78;;;1.00;99.90;;;;;;5068626;28;20051;-46
2021/12/27 11:03:45;;;;;;;167.30;49.10;;;1.10;99.90;;;;;;5069259;28;20554;-44
2021/12/27 11:06:14;;;;;;;170.15;46.85;;;1.20;99.90;;;;;;5066964;28;20406;-48
2021/12/27 11:08:45;;;;;;;166.93;47.55;;;1.10;99.90;;;;;;5067385;28;20517;-48
2021/12/27 11:11:12;;;;;;;179.98;51.25;;;1.20;99.90;;;;;;5068831;28;20099;-42
2021/12/27 11:13:39;;;;;;;176.73;49.88;;;1.30;99.90;;;;;;5068178;28;20839;-46
2021/12/27 11:16:05;;;;;;;185.02;50.50;;;1.30;99.90;;;;;;5066827;28;20135;-40
2021/12/27 11:18:31;;;;;;;174.20;46.15;;;1.20;99.90;;;;;;5068320;28;20039;-38
2021/12/27 11:21:03;;;;;;;182.57;45.03;;;1.20;99.90;;;;;;5067647;28;20710;-38
2021/12/27 11:23:30;;;;;;;199.80;49.72;;;1.20;99.90;;;;;;5067222;28;20036;-39
2021/12/27 11:26:21;;;;;;;210.65;51.13;;;1.10;99.90;;;;;;5068541;28;20059;-38
2021/12/27 11:28:49;;;;;;;218.88;54.97;;;1.20;99.90;;;;;;5050978;28;20478;-39
2021/12/27 11:31:23;;;;;;;208.15;52.95;;;1.20;99.90;;;;;;5066803;28;20032;-40
2021/12/27 11:34:00;;;;;;;251.52;60.25;;;1.20;99.90;;;;;;5066781;28;20111;-40
2021/12/27 11:36:29;;;;;;;235.65;54.90;;;1.10;99.90;;;;;;5067748;28;20063;-40
2021/12/27 11:38:56;;;;;;;262.48;63.97;;;1.20;99.90;;;;;;5068379;28;20036;-41
2021/12/27 11:41:24;;;;;;;244.80;56.83;;;2.00;99.90;;;;;;5046383;28;22224;-41
2021/12/27 11:43:57;;;;;;;232.85;53.63;;;1.70;99.90;;;;;;5063460;28;20032;-41
2021/12/27 11:46:25;;;;;;;254.27;55.80;;;1.20;99.90;;;;;;5066354;28;20040;-40
2021/12/27 11:48:54;;;;;;;283.50;56.97;;;1.40;99.90;;;;;;5066861;28;20036;-38
2021/12/27 11:51:31;;;;;;;248.43;51.88;;;1.40;99.90;;;;;;5067039;28;20037;-39
2021/12/27 11:54:00;;;;;;;259.27;54.08;;;1.70;99.90;;;;;;5067918;28;20076;-43
2021/12/27 11:56:37;;;;;;;259.98;55.47;;;1.20;99.90;;;;;;5047883;28;20171;-49
2021/12/27 11:59:26;;;;;;;306.67;59.20;;;1.80;99.90;;;;;;5067541;28;20032;-51
2021/12/27 12:01:55;;;;;;;306.30;59.58;;;1.30;99.90;;;;;;5055865;28;20053;-43
2021/12/27 12:04:47;;;;;;;319.65;58.63;;;1.20;99.90;;;;;;5066157;28;20037;-43
2021/12/27 12:07:34;;;;;;;373.23;62.60;;;1.10;99.90;;;;;;5068761;28;20044;-44
2021/12/27 12:10:02;;;;;;;271.08;60.72;;;1.20;99.90;;;;;;5068703;28;20098;-44
2021/12/27 12:12:28;;;;;;;285.25;61.20;;;1.20;99.90;;;;;;5069213;28;20046;-54
2021/12/27 12:14:56;;;;;;;357.23;66.95;;;1.20;99.90;;;;;;5070841;28;20040;-42
2021/12/27 12:17:40;;;;;;;367.02;60.20;;;1.30;99.90;;;;;;5069993;28;20095;-41
2021/12/27 12:20:24;;;;;;;242.63;52.67;;;1.30;99.90;;;;;;5068717;28;20036;-42
2021/12/27 12:22:58;;;;;;;252.77;53.53;;;1.30;99.90;;;;;;5068590;28;20415;-44
2021/12/27 12:25:24;;;;;;;310.48;59.55;;;1.40;99.90;;;;;;5065924;28;20071;-43
2021/12/27 12:28:08;;;;;;;429.52;66.35;;;1.50;99.90;;;;;;5066323;28;20071;-43
2021/12/27 12:30:36;;;;;;;383.20;68.28;;;1.40;99.90;;;;;;5067274;28;20056;-47